Time;durP1;ratioP1;P1;durP2;ratioP2;P2;SDS_P1;SDS_P2;PMS_P1;PMS_P2;Temp;Humidity;BMP_temperature;BMP_pressure;BME280_temperature;BME280_humidity;BME280_pressure;Samples;Min_cycle;Max_cycle;Signal;HPM_P1;HPM_P2
2022/05/24 00:00:03;;;;;;;4.00;2.73;;;17.10;99.90;;;;;;5021434;28;20169;-58
2022/05/24 00:02:29;;;;;;;3.07;2.77;;;17.20;99.90;;;;;;5027529;28;20172;-57
2022/05/24 00:04:54;;;;;;;3.87;3.30;;;17.20;99.90;;;;;;5013616;28;20532;-58
2022/05/24 00:07:20;;;;;;;3.57;2.70;;;17.30;99.90;;;;;;5011310;28;20184;-59
2022/05/24 00:09:46;;;;;;;4.53;2.90;;;17.40;99.90;;;;;;5011658;28;20185;-57
2022/05/24 00:12:11;;;;;;;4.57;2.90;;;17.50;99.90;;;;;;5011751;28;20704;-59
2022/05/24 00:17:21;;;;;;;4.50;2.90;;;17.60;99.90;;;;;;5011495;28;20197;-59
2022/05/24 00:19:47;;;;;;;3.50;2.53;;;17.60;99.90;;;;;;5011513;28;20210;-54
2022/05/24 00:22:13;;;;;;;3.67;2.60;;;17.70;99.90;;;;;;5011851;28;20202;-56
2022/05/24 00:24:39;;;;;;;4.20;2.70;;;17.80;99.90;;;;;;5011138;28;20224;-54
2022/05/24 00:27:05;;;;;;;5.13;2.90;;;17.90;99.90;;;;;;5011517;28;20182;-59
2022/05/24 00:29:30;;;;;;;2.80;2.60;;;17.80;99.90;;;;;;5011390;28;20235;-58
2022/05/24 00:31:56;;;;;;;3.30;2.50;;;17.90;99.90;;;;;;5011404;28;20201;-57
2022/05/24 00:34:21;;;;;;;3.60;2.70;;;17.90;99.90;;;;;;5014930;28;20203;-55
2022/05/24 00:36:47;;;;;;;3.23;2.93;;;17.90;99.90;;;;;;5015178;28;20187;-57
2022/05/24 00:39:12;;;;;;;3.43;2.80;;;17.90;99.90;;;;;;5015321;28;20268;-58
2022/05/24 00:41:44;;;;;;;3.90;3.50;;;17.90;99.90;;;;;;5015156;28;20182;-57
2022/05/24 00:44:21;;;;;;;4.93;3.43;;;17.90;99.90;;;;;;5014696;28;20208;-57
2022/05/24 00:47:03;;;;;;;4.40;2.73;;;17.90;99.90;;;;;;5015204;28;20169;-58
2022/05/24 00:49:45;;;;;;;3.37;3.07;;;18.00;99.90;;;;;;5015131;28;20181;-58
2022/05/24 00:52:14;;;;;;;4.90;3.10;;;17.90;99.90;;;;;;5015106;28;20157;-59
2022/05/24 00:54:41;;;;;;;4.30;2.97;;;17.90;99.90;;;;;;5014766;28;20287;-56
2022/05/24 00:57:34;;;;;;;3.77;3.10;;;17.80;99.90;;;;;;5014803;28;20679;-58
2022/05/24 01:00:08;;;;;;;4.70;3.50;;;17.80;99.90;;;;;;5014760;28;20175;-56
2022/05/24 01:02:36;;;;;;;3.90;3.10;;;17.80;99.90;;;;;;5015281;28;20669;-55
2022/05/24 01:05:03;;;;;;;4.57;3.10;;;17.80;99.90;;;;;;5014415;28;20188;-58
2022/05/24 01:07:29;;;;;;;3.37;3.07;;;17.80;99.90;;;;;;5014635;28;20272;-60
2022/05/24 01:10:01;;;;;;;3.73;3.07;;;17.80;99.90;;;;;;5014653;28;20271;-58
2022/05/24 01:12:53;;;;;;;4.63;3.90;;;17.80;99.90;;;;;;5014808;28;20158;-58
2022/05/24 01:15:20;;;;;;;4.00;3.60;;;17.90;99.90;;;;;;5014292;28;20193;-59
2022/05/24 01:17:48;;;;;;;4.57;3.50;;;17.80;99.90;;;;;;5014439;28;20176;-58
2022/05/24 01:20:14;;;;;;;4.70;3.20;;;17.90;99.90;;;;;;5014593;28;20183;-58
2022/05/24 01:23:06;;;;;;;6.57;3.40;;;17.90;99.90;;;;;;5014623;28;20550;-58
2022/05/24 01:25:44;;;;;;;5.43;3.23;;;17.90;99.90;;;;;;5013993;28;20214;-56
2022/05/24 01:28:28;;;;;;;3.70;3.40;;;17.90;99.90;;;;;;5014470;28;20174;-61
2022/05/24 01:30:55;;;;;;;3.63;2.97;;;17.90;99.90;;;;;;5014627;28;20192;-59
2022/05/24 01:36:10;;;;;;;5.57;4.40;;;17.90;99.90;;;;;;5014333;28;20173;-58
2022/05/24 01:38:57;;;;;;;5.07;4.10;;;18.00;99.90;;;;;;5014259;28;20180;-57
2022/05/24 01:41:27;;;;;;;4.63;4.23;;;17.90;99.90;;;;;;5013794;28;20325;-59
2022/05/24 01:43:54;;;;;;;7.87;5.03;;;17.90;99.90;;;;;;5013667;28;20642;-59
2022/05/24 01:46:42;;;;;;;6.13;4.63;;;17.80;99.90;;;;;;5014011;28;20188;-58
2022/05/24 01:49:22;;;;;;;6.60;4.90;;;17.90;99.90;;;;;;5013622;28;20197;-59
2022/05/24 01:52:05;;;;;;;5.83;5.20;;;17.80;99.90;;;;;;5013874;28;20280;-59
2022/05/24 01:54:35;;;;;;;5.67;5.10;;;17.80;99.90;;;;;;5013663;28;20200;-56
2022/05/24 01:57:24;;;;;;;6.37;5.40;;;17.80;99.90;;;;;;5013958;28;20642;-59
2022/05/24 01:59:52;;;;;;;7.93;5.07;;;17.80;99.90;;;;;;5013921;28;20264;-61
2022/05/24 02:02:18;;;;;;;6.30;5.20;;;17.80;99.90;;;;;;5013757;28;20788;-59
2022/05/24 02:04:44;;;;;;;5.87;5.27;;;17.90;99.90;;;;;;5013729;28;20293;-59
2022/05/24 02:07:17;;;;;;;5.77;5.07;;;17.90;99.90;;;;;;5016734;28;20214;-59
2022/05/24 02:09:51;;;;;;;6.50;5.37;;;17.90;99.90;;;;;;5033274;28;20197;-58
2022/05/24 02:12:28;;;;;;;5.47;4.93;;;17.90;99.90;;;;;;5033420;28;20173;-59
2022/05/24 02:15:02;;;;;;;5.70;4.97;;;17.90;99.90;;;;;;5032915;28;20188;-59
2022/05/24 02:17:34;;;;;;;7.07;4.77;;;17.90;99.90;;;;;;5033198;28;20181;-61
2022/05/24 02:20:02;;;;;;;5.87;5.27;;;17.90;99.90;;;;;;5033565;28;20230;-58
2022/05/24 02:22:29;;;;;;;5.77;5.17;;;17.90;99.90;;;;;;5033469;28;20266;-59
2022/05/24 02:25:20;;;;;;;7.00;5.57;;;17.90;99.90;;;;;;5031064;28;20204;-60
2022/05/24 02:27:46;;;;;;;6.90;5.37;;;17.90;99.90;;;;;;5028204;28;20183;-59
2022/05/24 02:30:17;;;;;;;5.87;5.27;;;17.90;99.90;;;;;;5032877;28;20190;-60
2022/05/24 02:32:43;;;;;;;6.33;5.73;;;17.90;99.90;;;;;;5033032;28;20155;-60
2022/05/24 02:35:09;;;;;;;6.93;6.27;;;17.80;99.90;;;;;;5032540;28;20527;-61
2022/05/24 02:37:35;;;;;;;7.13;5.77;;;17.90;99.90;;;;;;5032905;28;20631;-60
2022/05/24 02:42:44;;;;;;;5.40;4.90;;;17.70;99.90;;;;;;5033321;28;20296;-58
2022/05/24 02:45:10;;;;;;;6.30;5.70;;;17.70;99.90;;;;;;5032445;28;20225;-57
2022/05/24 02:47:36;;;;;;;6.03;5.43;;;17.70;99.90;;;;;;5032979;28;20169;-60
2022/05/24 02:50:02;;;;;;;6.00;5.40;;;17.70;99.90;;;;;;5032778;28;20223;-57
2022/05/24 02:52:28;;;;;;;6.37;5.57;;;17.70;99.90;;;;;;5033557;28;20164;-61
2022/05/24 02:54:53;;;;;;;6.73;6.13;;;17.70;99.90;;;;;;5031837;28;20257;-61
2022/05/24 02:57:19;;;;;;;7.37;6.27;;;17.70;99.90;;;;;;5032504;28;20184;-59
2022/05/24 02:59:44;;;;;;;8.13;6.20;;;17.60;99.90;;;;;;5032568;28;20574;-54
2022/05/24 03:02:10;;;;;;;6.43;5.83;;;17.50;99.90;;;;;;5032387;28;20216;-61
2022/05/24 03:04:36;;;;;;;7.47;6.30;;;17.50;99.90;;;;;;5032119;28;20184;-57
2022/05/24 03:09:45;;;;;;;7.23;6.47;;;17.50;99.90;;;;;;5032657;28;20160;-56
2022/05/24 03:14:56;;;;;;;7.20;6.50;;;17.50;99.90;;;;;;5031916;28;20235;-58
2022/05/24 03:17:22;;;;;;;7.30;6.20;;;17.40;99.90;;;;;;5032048;28;20179;-57
2022/05/24 03:19:49;;;;;;;7.50;6.20;;;17.30;99.90;;;;;;5030871;28;20217;-57
2022/05/24 03:22:14;;;;;;;6.63;5.77;;;17.30;99.90;;;;;;5031900;28;20218;-58
2022/05/24 03:24:41;;;;;;;6.57;5.80;;;17.40;99.90;;;;;;5031524;28;20577;-60
2022/05/24 03:27:13;;;;;;;7.90;7.10;;;17.40;99.90;;;;;;5032148;28;20227;-55
2022/05/24 03:29:44;;;;;;;8.37;7.57;;;17.20;99.90;;;;;;5032169;28;20241;-53
2022/05/24 03:32:11;;;;;;;9.33;7.87;;;16.90;99.90;;;;;;5031851;28;20180;-58
2022/05/24 03:34:38;;;;;;;9.70;7.80;;;16.70;99.90;;;;;;5031408;28;20192;-57
2022/05/24 03:37:04;;;;;;;9.23;7.63;;;16.60;99.90;;;;;;5030477;28;20627;-56
2022/05/24 03:39:30;;;;;;;9.33;8.33;;;16.70;99.90;;;;;;5031731;28;20636;-58
2022/05/24 03:41:56;;;;;;;8.67;7.87;;;16.80;99.90;;;;;;5031866;28;20282;-56
2022/05/24 03:44:21;;;;;;;9.00;8.10;;;16.90;99.90;;;;;;5031278;28;20193;-58
2022/05/24 03:46:47;;;;;;;8.37;7.23;;;17.00;99.90;;;;;;5031753;28;20482;-60
2022/05/24 03:49:15;;;;;;;8.30;7.50;;;17.10;99.90;;;;;;5031676;28;20176;-59
2022/05/24 03:51:41;;;;;;;8.57;6.97;;;17.30;99.90;;;;;;5031608;28;20200;-58
2022/05/24 03:54:07;;;;;;;8.37;7.57;;;17.40;99.90;;;;;;5031193;28;20254;-57
2022/05/24 03:56:35;;;;;;;8.43;7.57;;;17.40;99.90;;;;;;5031538;28;20219;-57
2022/05/24 03:59:00;;;;;;;8.47;7.67;;;17.40;99.90;;;;;;5031458;28;20180;-57
2022/05/24 04:01:26;;;;;;;9.53;8.63;;;17.60;99.90;;;;;;5031453;28;20173;-58
2022/05/24 04:03:52;;;;;;;10.17;8.77;;;17.60;99.90;;;;;;5031055;28;20201;-61
2022/05/24 04:06:17;;;;;;;9.90;8.90;;;17.70;99.90;;;;;;5031135;28;20178;-59
2022/05/24 04:08:45;;;;;;;10.20;9.30;;;17.70;99.90;;;;;;5030466;28;20193;-59
2022/05/24 04:11:11;;;;;;;9.80;8.47;;;17.80;99.90;;;;;;5031325;28;20285;-58
2022/05/24 04:13:39;;;;;;;10.00;8.37;;;17.80;99.90;;;;;;5031022;28;20176;-57
2022/05/24 04:16:05;;;;;;;9.60;8.70;;;17.80;99.90;;;;;;5031331;28;20171;-57
2022/05/24 04:18:31;;;;;;;8.40;7.70;;;17.80;99.90;;;;;;5031523;28;20536;-58
2022/05/24 04:20:57;;;;;;;10.50;9.37;;;17.70;99.90;;;;;;5031182;28;20164;-59
2022/05/24 04:23:25;;;;;;;7.97;7.17;;;17.70;99.90;;;;;;5031226;28;20619;-62
2022/05/24 04:25:51;;;;;;;11.03;7.83;;;17.70;99.90;;;;;;5031205;28;20176;-59
2022/05/24 04:28:20;;;;;;;8.47;7.27;;;17.70;99.90;;;;;;5031531;28;20588;-59
2022/05/24 04:30:50;;;;;;;9.27;8.37;;;17.70;99.90;;;;;;5031017;28;20235;-61
2022/05/24 04:33:17;;;;;;;9.83;8.83;;;17.80;99.90;;;;;;5031277;28;20167;-59
2022/05/24 04:35:46;;;;;;;8.33;7.53;;;17.70;99.90;;;;;;5030736;28;20190;-61
2022/05/24 04:38:12;;;;;;;9.53;7.60;;;17.70;99.90;;;;;;5031165;28;20214;-59
2022/05/24 04:43:22;;;;;;;8.23;7.47;;;18.00;99.90;;;;;;5031374;28;20195;-64
2022/05/24 04:45:48;;;;;;;7.83;7.03;;;18.00;99.90;;;;;;5030717;28;20690;-57
2022/05/24 04:48:13;;;;;;;7.47;6.83;;;18.10;99.90;;;;;;5030888;28;20180;-59
2022/05/24 04:50:39;;;;;;;7.60;6.90;;;18.10;99.90;;;;;;5031239;28;20202;-59
2022/05/24 04:53:08;;;;;;;8.33;7.33;;;18.20;99.90;;;;;;5031140;28;20181;-59
2022/05/24 04:55:33;;;;;;;7.57;6.87;;;18.10;99.90;;;;;;5030566;28;20270;-60
2022/05/24 04:57:59;;;;;;;7.50;6.90;;;18.10;99.90;;;;;;5030831;28;20252;-59
2022/05/24 05:00:25;;;;;;;8.93;7.00;;;18.10;99.90;;;;;;5030972;28;20176;-59
2022/05/24 05:02:52;;;;;;;8.47;6.30;;;18.10;99.90;;;;;;5030887;28;20173;-58
2022/05/24 05:05:19;;;;;;;7.57;6.57;;;18.20;99.90;;;;;;5030510;28;20263;-59
2022/05/24 05:07:44;;;;;;;7.23;6.60;;;18.30;99.90;;;;;;5030550;28;20180;-57
2022/05/24 05:10:11;;;;;;;7.03;6.33;;;18.40;99.90;;;;;;5030720;28;20210;-59
2022/05/24 05:12:37;;;;;;;7.23;6.53;;;18.40;99.90;;;;;;5030714;28;20195;-59
2022/05/24 05:15:05;;;;;;;6.53;5.90;;;18.30;99.90;;;;;;5030291;28;20223;-59
2022/05/24 05:17:30;;;;;;;6.93;6.33;;;18.40;99.90;;;;;;5030744;28;20190;-59
2022/05/24 05:19:59;;;;;;;7.27;6.37;;;18.50;99.90;;;;;;5033501;28;20629;-61
2022/05/24 05:22:25;;;;;;;6.70;6.10;;;18.60;99.90;;;;;;5034218;28;20699;-58
2022/05/24 05:24:51;;;;;;;8.47;5.80;;;18.70;99.90;;;;;;5033892;28;20212;-54
2022/05/24 05:27:18;;;;;;;6.10;5.50;;;18.90;99.90;;;;;;5034446;28;20252;-57
2022/05/24 05:32:30;;;;;;;5.80;5.30;;;18.90;99.90;;;;;;5034039;28;20203;-58
2022/05/24 05:34:57;;;;;;;6.70;5.80;;;18.90;99.90;;;;;;5029754;28;20234;-56
2022/05/24 05:37:23;;;;;;;5.97;5.37;;;19.10;99.90;;;;;;5032606;28;20191;-57
2022/05/24 05:39:49;;;;;;;7.07;5.57;;;19.20;99.90;;;;;;5046311;28;20186;-58
2022/05/24 05:42:15;;;;;;;6.30;5.70;;;19.40;99.90;;;;;;5033533;28;20254;-60
2022/05/24 05:44:40;;;;;;;5.07;4.63;;;19.40;99.90;;;;;;5033411;28;20207;-61
2022/05/24 05:47:07;;;;;;;6.40;5.07;;;19.50;99.90;;;;;;5033496;28;20176;-57
2022/05/24 05:49:32;;;;;;;4.93;4.50;;;19.60;99.90;;;;;;5033541;28;20641;-58
2022/05/24 05:51:58;;;;;;;5.90;5.40;;;19.70;99.90;;;;;;5035558;28;20196;-56
2022/05/24 05:54:24;;;;;;;5.53;5.00;;;19.70;99.90;;;;;;5032660;28;20569;-59
2022/05/24 05:56:50;;;;;;;7.00;6.40;;;19.70;99.90;;;;;;5033499;28;20191;-60
2022/05/24 05:59:16;;;;;;;6.80;6.20;;;19.80;99.90;;;;;;5033717;28;20185;-56
2022/05/24 06:01:42;;;;;;;6.77;6.17;;;19.80;99.90;;;;;;5033361;28;20180;-61
2022/05/24 06:04:09;;;;;;;7.20;6.60;;;19.80;99.90;;;;;;5032816;28;20206;-58
2022/05/24 06:06:38;;;;;;;7.03;6.33;;;19.80;99.90;;;;;;5033084;28;20207;-58
2022/05/24 06:09:04;;;;;;;6.47;5.77;;;19.70;99.90;;;;;;5029737;28;20189;-59
2022/05/24 06:11:30;;;;;;;7.17;6.17;;;19.50;99.90;;;;;;5033369;28;20196;-63
2022/05/24 06:13:56;;;;;;;8.80;7.13;;;19.30;99.90;;;;;;5028051;28;20201;-56
2022/05/24 06:16:21;;;;;;;8.17;7.30;;;19.10;99.90;;;;;;5002634;28;20650;-60
2022/05/24 06:18:47;;;;;;;7.50;6.80;;;18.80;99.90;;;;;;5013244;28;20558;-61
2022/05/24 06:21:13;;;;;;;7.97;7.20;;;18.60;99.90;;;;;;5011859;28;20203;-59
2022/05/24 06:23:39;;;;;;;8.13;6.70;;;18.60;99.90;;;;;;5024758;28;20267;-57
2022/05/24 06:26:05;;;;;;;7.83;7.13;;;18.50;99.90;;;;;;5028289;28;20230;-61
2022/05/24 06:28:31;;;;;;;7.30;6.60;;;18.60;99.90;;;;;;5032437;28;20718;-58
2022/05/24 06:30:57;;;;;;;7.23;6.50;;;18.60;99.90;;;;;;5025258;28;20203;-58
2022/05/24 06:33:22;;;;;;;6.23;5.63;;;18.60;99.90;;;;;;5032196;28;20172;-59
2022/05/24 06:35:48;;;;;;;6.60;5.73;;;18.70;99.90;;;;;;5032277;28;20202;-57
2022/05/24 06:38:15;;;;;;;6.53;5.80;;;18.80;99.90;;;;;;5032761;28;20183;-60
2022/05/24 06:40:41;;;;;;;7.63;5.90;;;18.90;99.90;;;;;;5032659;28;20633;-60
2022/05/24 06:43:06;;;;;;;6.00;5.30;;;18.80;99.90;;;;;;5032234;28;20262;-62
2022/05/24 06:45:32;;;;;;;6.47;5.57;;;18.80;99.90;;;;;;5032239;28;20209;-59
2022/05/24 06:47:58;;;;;;;6.13;5.53;;;18.80;99.90;;;;;;5032389;28;20180;-58
2022/05/24 06:50:24;;;;;;;6.80;6.20;;;18.80;99.90;;;;;;5032519;28;20286;-59
2022/05/24 06:52:54;;;;;;;6.23;5.60;;;18.80;99.90;;;;;;5032710;28;20175;-59
2022/05/24 06:55:21;;;;;;;6.57;5.80;;;18.80;99.90;;;;;;5031974;28;20223;-56
2022/05/24 06:57:47;;;;;;;5.93;5.20;;;18.80;99.90;;;;;;5032251;28;20604;-58
2022/05/24 07:03:07;;;;;;;7.50;6.10;;;19.00;99.90;;;;;;5032225;28;20182;-60
2022/05/24 07:05:34;;;;;;;7.07;5.10;;;19.10;99.90;;;;;;5031718;28;20226;-59
2022/05/24 07:08:01;;;;;;;8.57;5.60;;;19.10;99.90;;;;;;5032128;28;20722;-57
2022/05/24 07:10:28;;;;;;;5.57;5.07;;;19.10;99.90;;;;;;5032135;28;20579;-57
2022/05/24 07:13:08;;;;;;;6.17;5.37;;;19.00;99.90;;;;;;5032040;28;20172;-58
2022/05/24 07:15:34;;;;;;;6.30;4.87;;;19.00;99.90;;;;;;5031768;28;20195;-58
2022/05/24 07:18:01;;;;;;;6.63;4.77;;;19.00;99.90;;;;;;5031920;28;20164;-58
2022/05/24 07:20:28;;;;;;;5.93;4.80;;;19.00;99.90;;;;;;5032224;28;20184;-58
2022/05/24 07:22:54;;;;;;;4.93;4.43;;;19.00;99.90;;;;;;5036296;28;20179;-59
2022/05/24 07:25:21;;;;;;;4.67;4.27;;;19.10;99.90;;;;;;5035516;28;20234;-57
2022/05/24 07:27:47;;;;;;;5.67;4.77;;;19.80;99.90;;;;;;5031769;28;20188;-58
2022/05/24 07:30:12;;;;;;;5.10;4.33;;;19.40;99.90;;;;;;5035820;28;20179;-59
2022/05/24 07:32:38;;;;;;;5.23;4.53;;;19.40;99.90;;;;;;5033701;28;20533;-60
2022/05/24 07:35:05;;;;;;;4.90;4.50;;;19.50;99.90;;;;;;5023086;28;20318;-57
2022/05/24 07:37:31;;;;;;;5.07;4.53;;;19.50;99.90;;;;;;5032612;28;20183;-58
2022/05/24 07:48:09;;;;;;;6.07;4.93;;;19.60;99.90;;;;;;5031317;28;20231;-59
2022/05/24 07:50:36;;;;;;;5.63;5.13;;;19.50;99.90;;;;;;5031463;28;20680;-62
2022/05/24 07:53:02;;;;;;;4.97;4.50;;;19.50;99.90;;;;;;5031593;28;20267;-60
2022/05/24 07:55:28;;;;;;;4.47;3.93;;;19.50;99.90;;;;;;5030935;28;20205;-60
2022/05/24 07:57:53;;;;;;;4.63;3.87;;;19.50;99.90;;;;;;5027938;28;20184;-58
2022/05/24 08:00:19;;;;;;;4.23;3.80;;;19.50;99.90;;;;;;5021526;28;20542;-60
2022/05/24 08:02:45;;;;;;;5.17;4.13;;;19.50;99.90;;;;;;5024103;28;20226;-60
2022/05/24 08:05:11;;;;;;;4.93;3.80;;;19.50;99.90;;;;;;5026627;28;20195;-61
2022/05/24 08:07:37;;;;;;;4.30;3.90;;;19.60;99.90;;;;;;5026230;28;20176;-60
2022/05/24 08:10:04;;;;;;;4.20;3.70;;;19.70;99.90;;;;;;5022953;28;20222;-62
2022/05/24 08:12:31;;;;;;;3.50;3.20;;;19.70;99.90;;;;;;5023866;28;20179;-61
2022/05/24 08:14:58;;;;;;;4.50;3.80;;;19.70;99.90;;;;;;5023344;28;20204;-56
2022/05/24 08:17:24;;;;;;;6.30;3.50;;;19.70;99.90;;;;;;5027261;28;20867;-59
2022/05/24 08:19:49;;;;;;;4.43;3.70;;;19.70;99.90;;;;;;5026502;28;20211;-57
2022/05/24 08:22:15;;;;;;;4.10;3.70;;;19.60;99.90;;;;;;5028777;28;20176;-58
2022/05/24 08:24:41;;;;;;;4.67;3.30;;;19.60;99.90;;;;;;5022657;28;20253;-62
2022/05/24 08:27:08;;;;;;;6.77;4.50;;;19.60;99.90;;;;;;5012473;28;20246;-57
2022/05/24 08:29:35;;;;;;;6.27;4.73;;;19.10;99.90;;;;;;5030784;28;20271;-54
2022/05/24 08:32:00;;;;;;;5.33;4.23;;;19.70;99.90;;;;;;5030797;28;20195;-58
2022/05/24 08:34:26;;;;;;;6.73;4.30;;;19.70;99.90;;;;;;5021831;28;20669;-58
2022/05/24 08:36:51;;;;;;;6.03;4.90;;;19.70;99.90;;;;;;5025378;28;20565;-59
2022/05/24 08:39:17;;;;;;;5.40;4.90;;;19.60;99.90;;;;;;5021759;28;20177;-56
2022/05/24 08:42:07;;;;;;;5.27;4.57;;;19.60;99.90;;;;;;5023335;28;20176;-54
2022/05/24 08:50:18;;;;;;;5.47;4.50;;;19.50;99.90;;;;;;5027655;28;20183;-59
2022/05/24 08:52:49;;;;;;;4.97;4.40;;;19.40;99.90;;;;;;5020877;28;20630;-58
2022/05/24 08:55:16;;;;;;;4.40;4.00;;;19.30;99.90;;;;;;5025291;28;20192;-60
2022/05/24 08:57:49;;;;;;;4.43;3.87;;;19.30;99.90;;;;;;5026508;28;20226;-55
2022/05/24 09:00:36;;;;;;;4.20;3.80;;;19.40;99.90;;;;;;5026052;28;20172;-56
2022/05/24 09:03:05;;;;;;;4.80;4.30;;;19.40;99.90;;;;;;5031684;28;20164;-57
2022/05/24 09:05:38;;;;;;;4.77;4.27;;;19.40;99.90;;;;;;5026144;28;20199;-60
2022/05/24 09:08:23;;;;;;;5.93;5.20;;;19.40;99.90;;;;;;5029175;28;20211;-61
2022/05/24 09:10:55;;;;;;;5.70;5.10;;;19.50;99.90;;;;;;5024827;28;20202;-57
2022/05/24 09:13:50;;;;;;;7.53;6.37;;;19.50;99.90;;;;;;5011285;28;20183;-57
2022/05/24 09:16:17;;;;;;;7.83;5.97;;;19.50;99.90;;;;;;5031524;28;20165;-58
2022/05/24 09:19:25;;;;;;;6.20;5.60;;;19.50;99.90;;;;;;5029323;28;20160;-61
2022/05/24 09:21:54;;;;;;;6.03;5.07;;;19.60;99.90;;;;;;4971486;28;20178;-59
2022/05/24 09:24:31;;;;;;;5.10;3.87;;;19.60;99.90;;;;;;4971745;28;20946;-57
2022/05/24 09:27:10;;;;;;;4.67;3.63;;;19.60;99.90;;;;;;4972350;28;20612;-58
2022/05/24 09:29:53;;;;;;;4.47;3.70;;;19.60;99.90;;;;;;4956013;28;20186;-57
2022/05/24 09:32:21;;;;;;;5.30;3.70;;;19.50;99.90;;;;;;4972743;28;20202;-60
2022/05/24 09:34:46;;;;;;;4.43;3.80;;;19.50;99.90;;;;;;4975927;28;20205;-55
2022/05/24 09:37:25;;;;;;;4.37;3.87;;;19.50;99.90;;;;;;4975391;28;20663;-58
2022/05/24 09:40:15;;;;;;;3.70;3.40;;;19.30;99.90;;;;;;4976527;28;20178;-54
2022/05/24 09:42:41;;;;;;;4.97;4.00;;;19.20;99.90;;;;;;4980704;28;20186;-59
2022/05/24 09:45:12;;;;;;;4.07;3.67;;;19.10;99.90;;;;;;4980268;28;20420;-56
2022/05/24 09:47:59;;;;;;;4.53;3.63;;;19.10;99.90;;;;;;4985269;28;20356;-59
2022/05/24 09:50:29;;;;;;;4.37;3.80;;;19.10;99.90;;;;;;4991048;28;20723;-57
2022/05/24 09:53:09;;;;;;;4.43;3.57;;;19.20;99.90;;;;;;4984038;28;20768;-57
2022/05/24 09:55:46;;;;;;;4.20;3.40;;;19.20;99.90;;;;;;5019505;28;20197;-57
2022/05/24 09:58:55;;;;;;;5.60;4.80;;;19.20;99.90;;;;;;5039172;28;20278;-57
2022/05/24 10:01:43;;;;;;;6.37;3.77;;;19.20;99.90;;;;;;5032753;28;20189;-54
2022/05/24 10:04:13;;;;;;;5.17;4.40;;;19.20;99.90;;;;;;5026185;28;20660;-59
2022/05/24 10:06:42;;;;;;;6.30;4.53;;;19.30;99.90;;;;;;5023780;28;20252;-61
2022/05/24 10:09:19;;;;;;;8.27;4.03;;;19.30;99.90;;;;;;5022004;28;20177;-60
2022/05/24 10:11:59;;;;;;;5.70;3.83;;;19.30;99.90;;;;;;5022145;28;20191;-58
2022/05/24 10:14:45;;;;;;;4.47;3.90;;;19.40;99.90;;;;;;5021637;28;20581;-58
2022/05/24 10:17:42;;;;;;;4.97;4.40;;;19.40;99.90;;;;;;5024612;28;20267;-57
2022/05/24 10:20:22;;;;;;;4.93;4.43;;;19.30;99.90;;;;;;5033506;28;20171;-61
2022/05/24 10:23:13;;;;;;;4.83;4.20;;;19.20;99.90;;;;;;5024337;28;20179;-59
2022/05/24 10:25:53;;;;;;;4.90;3.73;;;19.10;99.90;;;;;;5021411;28;20214;-60
2022/05/24 10:28:24;;;;;;;4.93;4.43;;;19.10;99.90;;;;;;5021910;28;20227;-58
2022/05/24 10:31:13;;;;;;;6.23;5.10;;;19.20;99.90;;;;;;5021817;28;20198;-57
2022/05/24 10:40:16;;;;;;;5.87;4.33;;;19.20;99.90;;;;;;5032966;28;20203;-60
2022/05/24 10:43:12;;;;;;;4.57;3.73;;;19.00;99.90;;;;;;5032700;28;20168;-59
2022/05/24 10:45:51;;;;;;;4.50;4.10;;;18.90;99.90;;;;;;5023480;28;20592;-63
2022/05/24 10:48:25;;;;;;;4.83;4.30;;;19.00;99.90;;;;;;5003754;28;20168;-57
2022/05/24 10:51:00;;;;;;;6.93;4.60;;;19.00;99.90;;;;;;5022475;28;20561;-57
2022/05/24 10:53:36;;;;;;;5.23;4.20;;;19.30;99.90;;;;;;5020076;28;20183;-60
2022/05/24 10:56:08;;;;;;;5.47;4.30;;;19.30;99.90;;;;;;5020397;28;20170;-61
2022/05/24 10:58:38;;;;;;;7.00;4.17;;;19.50;99.90;;;;;;5023750;28;20184;-55
2022/05/24 11:01:17;;;;;;;5.77;4.20;;;19.70;99.90;;;;;;5024028;28;20356;-56
2022/05/24 11:03:47;;;;;;;4.67;4.17;;;19.60;99.90;;;;;;5020570;28;20205;-58
2022/05/24 11:06:40;;;;;;;7.10;4.13;;;19.50;99.90;;;;;;5021561;28;20183;-61
2022/05/24 11:09:12;;;;;;;4.97;4.10;;;19.50;99.90;;;;;;5021159;28;20220;-58
2022/05/24 11:11:50;;;;;;;5.53;4.50;;;19.50;99.90;;;;;;5020617;28;20645;-58
2022/05/24 11:14:28;;;;;;;6.70;4.63;;;19.50;99.90;;;;;;5022248;28;20185;-56
2022/05/24 11:16:55;;;;;;;5.03;4.47;;;19.40;99.90;;;;;;5022043;28;20160;-58
2022/05/24 11:19:36;;;;;;;7.23;4.77;;;19.20;99.90;;;;;;5023397;28;20355;-55
2022/05/24 11:22:17;;;;;;;3.40;3.10;;;19.00;99.90;;;;;;5031775;28;20171;-55
2022/05/24 11:24:55;;;;;;;3.57;2.50;;;18.70;99.90;;;;;;5031542;28;20208;-57
2022/05/24 11:27:29;;;;;;;1.90;1.80;;;18.40;99.90;;;;;;5031821;28;20175;-57
2022/05/24 11:30:00;;;;;;;6.27;1.70;;;18.30;99.90;;;;;;5031911;28;20552;-56
2022/05/24 11:32:51;;;;;;;1.17;0.90;;;18.20;99.90;;;;;;5031462;28;20188;-58
2022/05/24 11:35:20;;;;;;;1.50;1.00;;;18.00;99.90;;;;;;5013796;28;20219;-60
2022/05/24 11:37:52;;;;;;;1.70;0.90;;;17.90;99.90;;;;;;5031603;28;20180;-59
2022/05/24 11:40:48;;;;;;;2.53;1.00;;;18.40;99.90;;;;;;5019952;28;20258;-59
2022/05/24 11:43:35;;;;;;;2.37;1.40;;;18.00;99.90;;;;;;5022800;28;20187;-58
2022/05/24 11:46:10;;;;;;;1.80;0.80;;;18.10;99.90;;;;;;5028036;28;20176;-58
2022/05/24 11:49:09;;;;;;;1.13;1.00;;;18.10;99.90;;;;;;5024107;28;20214;-56
2022/05/24 11:51:37;;;;;;;1.27;1.00;;;18.30;99.90;;;;;;4978450;28;20198;-57
2022/05/24 11:54:08;;;;;;;1.03;0.90;;;18.40;99.90;;;;;;4956945;28;20614;-58
2022/05/24 11:56:34;;;;;;;1.90;1.03;;;18.40;99.90;;;;;;4978277;28;20194;-57
2022/05/24 11:59:05;;;;;;;2.07;1.30;;;18.40;99.90;;;;;;4971514;28;20190;-58
2022/05/24 12:01:39;;;;;;;1.10;1.00;;;18.50;99.90;;;;;;4969594;28;20178;-56
2022/05/24 12:09:58;;;;;;;3.13;1.03;;;18.50;99.90;;;;;;4967265;28;20271;-59
2022/05/24 12:12:34;;;;;;;1.10;1.10;;;18.60;99.90;;;;;;4976962;28;20587;-59
2022/05/24 12:15:12;;;;;;;3.00;1.33;;;18.70;99.90;;;;;;4977095;28;20208;-56
2022/05/24 12:17:38;;;;;;;1.33;1.10;;;19.70;99.90;;;;;;4974175;28;20252;-58
2022/05/24 12:20:25;;;;;;;2.43;1.30;;;18.50;99.90;;;;;;4970626;28;20671;-58
2022/05/24 12:23:14;;;;;;;1.60;1.30;;;18.30;99.90;;;;;;4977317;28;20269;-56
2022/05/24 12:25:54;;;;;;;1.50;1.30;;;18.30;99.90;;;;;;4969699;28;20209;-56
2022/05/24 12:28:23;;;;;;;2.87;1.37;;;18.30;99.90;;;;;;4997354;28;20198;-60
2022/05/24 12:30:51;;;;;;;2.63;1.10;;;18.40;99.90;;;;;;5027727;28;20282;-58
2022/05/24 12:33:31;;;;;;;2.77;1.67;;;18.50;99.90;;;;;;5028575;28;20570;-56
2022/05/24 12:36:20;;;;;;;1.67;1.57;;;18.80;99.90;;;;;;5025858;28;20673;-58
2022/05/24 12:39:07;;;;;;;1.50;1.40;;;18.70;99.90;;;;;;5016422;28;20188;-57
2022/05/24 12:41:37;;;;;;;1.57;1.47;;;18.80;99.90;;;;;;5015460;28;20181;-60
2022/05/24 12:44:14;;;;;;;2.37;1.77;;;18.90;99.90;;;;;;5014834;28;20212;-59
2022/05/24 12:46:42;;;;;;;2.87;1.70;;;19.10;99.90;;;;;;5015351;28;20160;-59
2022/05/24 12:49:21;;;;;;;3.43;2.13;;;19.10;99.90;;;;;;5015226;28;20183;-55
2022/05/24 12:51:47;;;;;;;2.70;1.90;;;19.20;99.90;;;;;;5015522;28;20676;-55
2022/05/24 12:54:19;;;;;;;2.83;1.90;;;19.20;99.90;;;;;;5014784;28;20185;-58
2022/05/24 12:56:59;;;;;;;3.60;2.20;;;19.00;99.90;;;;;;5015118;28;20172;-59
2022/05/24 12:59:35;;;;;;;2.03;1.83;;;18.90;99.90;;;;;;5014866;28;20175;-58
2022/05/24 13:02:24;;;;;;;2.63;1.90;;;18.80;99.90;;;;;;5014987;28;20153;-59
2022/05/24 13:04:50;;;;;;;2.50;2.30;;;18.60;99.90;;;;;;5014263;28;20232;-57
2022/05/24 13:07:36;;;;;;;2.13;1.93;;;18.50;99.90;;;;;;5014369;28;20567;-57
2022/05/24 13:10:22;;;;;;;2.50;2.30;;;18.60;99.90;;;;;;5020450;28;20742;-58
2022/05/24 13:13:01;;;;;;;3.17;2.30;;;18.80;99.90;;;;;;5022489;28;20240;-60
2022/05/24 13:15:49;;;;;;;3.77;2.20;;;18.90;99.90;;;;;;5033257;28;20184;-59
2022/05/24 13:18:22;;;;;;;2.83;2.30;;;18.80;99.90;;;;;;5027050;28;20172;-58
2022/05/24 13:20:54;;;;;;;2.73;2.30;;;18.70;99.90;;;;;;5033543;28;20172;-61
2022/05/24 13:23:28;;;;;;;2.43;2.17;;;18.60;99.90;;;;;;5029905;28;20222;-63
2022/05/24 13:26:05;;;;;;;4.20;2.00;;;18.50;99.90;;;;;;5025978;28;20614;-60
2022/05/24 13:28:44;;;;;;;2.40;2.20;;;18.50;99.90;;;;;;5032855;28;20259;-59
2022/05/24 13:34:28;;;;;;;3.97;2.70;;;18.60;99.90;;;;;;4946046;29;20209;-60
2022/05/24 13:37:11;;;;;;;2.77;2.20;;;18.50;99.90;;;;;;4953047;29;20178;-61
2022/05/24 13:39:39;;;;;;;2.50;2.30;;;18.60;99.90;;;;;;4952926;28;20162;-60
2022/05/24 13:42:20;;;;;;;2.50;2.10;;;18.60;99.90;;;;;;4950796;29;20529;-62
2022/05/24 13:45:16;;;;;;;2.30;2.10;;;18.70;99.90;;;;;;4952519;29;20210;-61
2022/05/24 13:47:44;;;;;;;3.13;2.27;;;18.70;99.90;;;;;;4952992;29;20227;-60
2022/05/24 13:50:31;;;;;;;3.53;2.60;;;18.80;99.90;;;;;;4953313;29;20174;-59
2022/05/24 13:53:01;;;;;;;3.17;2.50;;;18.80;99.90;;;;;;4953512;29;20250;-58
2022/05/24 13:55:53;;;;;;;2.87;2.30;;;18.80;99.90;;;;;;4952743;29;20793;-60
2022/05/24 13:58:46;;;;;;;2.30;2.10;;;18.80;99.90;;;;;;4950836;29;20195;-55